sensor_id;sensor_type;location;lat;lon;timestamp;temperature;humidity
1468;DHT22;727;48.892;9.544;2023-10-13T00:00:28;15.30;99.90
1468;DHT22;727;48.892;9.544;2023-10-13T00:03:01;15.30;99.90
1468;DHT22;727;48.892;9.544;2023-10-13T00:05:29;15.30;99.90
1468;DHT22;727;48.892;9.544;2023-10-13T00:07:56;15.30;99.90
1468;DHT22;727;48.892;9.544;2023-10-13T00:10:26;15.30;99.90
1468;DHT22;727;48.892;9.544;2023-10-13T00:12:54;15.30;99.90
1468;DHT22;727;48.892;9.544;2023-10-13T00:15:32;15.30;99.90
1468;DHT22;727;48.892;9.544;2023-10-13T00:18:04;15.30;99.90
1468;DHT22;727;48.892;9.544;2023-10-13T00:20:38;15.30;99.90
1468;DHT22;727;48.892;9.544;2023-10-13T00:23:05;15.20;99.90
1468;DHT22;727;48.892;9.544;2023-10-13T00:25:32;15.10;99.90
1468;DHT22;727;48.892;9.544;2023-10-13T00:28:09;15.10;99.90
1468;DHT22;727;48.892;9.544;2023-10-13T00:30:37;14.90;99.90
1468;DHT22;727;48.892;9.544;2023-10-13T00:33:04;14.90;99.90
1468;DHT22;727;48.892;9.544;2023-10-13T00:35:31;14.80;99.90
1468;DHT22;727;48.892;9.544;2023-10-13T00:38:03;14.80;99.90
1468;DHT22;727;48.892;9.544;2023-10-13T00:40:39;14.70;99.90
1468;DHT22;727;48.892;9.544;2023-10-13T00:43:18;14.70;99.90
1468;DHT22;727;48.892;9.544;2023-10-13T00:46:02;14.60;99.90
1468;DHT22;727;48.892;9.544;2023-10-13T00:48:34;14.60;99.90
1468;DHT22;727;48.892;9.544;2023-10-13T00:51:08;14.50;99.90
1468;DHT22;727;48.892;9.544;2023-10-13T00:53:43;14.50;99.90
1468;DHT22;727;48.892;9.544;2023-10-13T00:56:10;14.40;99.90
1468;DHT22;727;48.892;9.544;2023-10-13T00:58:49;14.40;99.90
1468;DHT22;727;48.892;9.544;2023-10-13T01:01:18;14.30;99.90
1468;DHT22;727;48.892;9.544;2023-10-13T01:03:48;14.30;99.90
1468;DHT22;727;48.892;9.544;2023-10-13T01:06:16;14.20;99.90
1468;DHT22;727;48.892;9.544;2023-10-13T01:08:45;14.20;99.90
1468;DHT22;727;48.892;9.544;2023-10-13T01:11:13;14.10;99.90
1468;DHT22;727;48.892;9.544;2023-10-13T01:13:40;14.10;99.90
1468;DHT22;727;48.892;9.544;2023-10-13T01:16:07;14.00;99.90
1468;DHT22;727;48.892;9.544;2023-10-13T01:18:35;14.00;99.90
1468;DHT22;727;48.892;9.544;2023-10-13T01:21:14;13.90;99.90
1468;DHT22;727;48.892;9.544;2023-10-13T01:23:47;13.80;99.90
1468;DHT22;727;48.892;9.544;2023-10-13T01:26:13;13.80;99.90
1468;DHT22;727;48.892;9.544;2023-10-13T01:28:47;13.80;99.90
1468;DHT22;727;48.892;9.544;2023-10-13T01:31:16;13.70;99.90
1468;DHT22;727;48.892;9.544;2023-10-13T01:33:51;13.70;99.90
1468;DHT22;727;48.892;9.544;2023-10-13T01:36:22;13.70;99.90
1468;DHT22;727;48.892;9.544;2023-10-13T01:38:50;13.70;99.90
1468;DHT22;727;48.892;9.544;2023-10-13T01:41:17;13.60;99.90
1468;DHT22;727;48.892;9.544;2023-10-13T01:43:45;13.60;99.90
1468;DHT22;727;48.892;9.544;2023-10-13T01:46:10;13.50;99.90
1468;DHT22;727;48.892;9.544;2023-10-13T01:48:40;13.50;99.90
1468;DHT22;727;48.892;9.544;2023-10-13T01:51:06;13.50;99.90
1468;DHT22;727;48.892;9.544;2023-10-13T01:53:36;13.40;99.90
1468;DHT22;727;48.892;9.544;2023-10-13T01:56:04;13.40;99.90
1468;DHT22;727;48.892;9.544;2023-10-13T01:58:36;13.30;99.90
1468;DHT22;727;48.892;9.544;2023-10-13T02:01:02;13.30;99.90
1468;DHT22;727;48.892;9.544;2023-10-13T02:03:29;13.20;99.90
1468;DHT22;727;48.892;9.544;2023-10-13T02:05:55;13.20;99.90
1468;DHT22;727;48.892;9.544;2023-10-13T02:08:29;13.10;99.90
1468;DHT22;727;48.892;9.544;2023-10-13T02:10:56;13.10;99.90
1468;DHT22;727;48.892;9.544;2023-10-13T02:13:25;13.00;99.90
1468;DHT22;727;48.892;9.544;2023-10-13T02:15:54;13.00;99.90
1468;DHT22;727;48.892;9.544;2023-10-13T02:18:23;13.00;99.90
1468;DHT22;727;48.892;9.544;2023-10-13T02:20:52;13.00;99.90
1468;DHT22;727;48.892;9.544;2023-10-13T02:23:21;13.00;99.90
1468;DHT22;727;48.892;9.544;2023-10-13T02:25:47;13.00;99.90
1468;DHT22;727;48.892;9.544;2023-10-13T02:28:18;13.00;99.90
1468;DHT22;727;48.892;9.544;2023-10-13T02:30:48;12.90;99.90
1468;DHT22;727;48.892;9.544;2023-10-13T02:33:16;12.90;99.90
1468;DHT22;727;48.892;9.544;2023-10-13T02:35:47;12.90;99.90
1468;DHT22;727;48.892;9.544;2023-10-13T02:38:19;12.80;99.90
1468;DHT22;727;48.892;9.544;2023-10-13T02:40:54;12.70;99.90
1468;DHT22;727;48.892;9.544;2023-10-13T02:43:22;12.70;99.90
1468;DHT22;727;48.892;9.544;2023-10-13T02:45:55;12.70;99.90
1468;DHT22;727;48.892;9.544;2023-10-13T02:48:25;12.70;99.90
1468;DHT22;727;48.892;9.544;2023-10-13T02:50:59;12.60;99.90
1468;DHT22;727;48.892;9.544;2023-10-13T02:53:31;12.60;99.90
1468;DHT22;727;48.892;9.544;2023-10-13T02:55:57;12.60;99.90
1468;DHT22;727;48.892;9.544;2023-10-13T02:58:31;12.50;99.90
1468;DHT22;727;48.892;9.544;2023-10-13T03:01:06;12.50;99.90
1468;DHT22;727;48.892;9.544;2023-10-13T03:03:43;12.50;99.90
1468;DHT22;727;48.892;9.544;2023-10-13T03:06:13;12.50;99.90
1468;DHT22;727;48.892;9.544;2023-10-13T03:08:40;12.50;99.90
1468;DHT22;727;48.892;9.544;2023-10-13T03:11:08;12.40;99.90
1468;DHT22;727;48.892;9.544;2023-10-13T03:13:37;12.40;99.90
1468;DHT22;727;48.892;9.544;2023-10-13T03:16:12;12.40;99.90
1468;DHT22;727;48.892;9.544;2023-10-13T03:18:42;12.40;99.90
1468;DHT22;727;48.892;9.544;2023-10-13T03:21:17;12.30;99.90
1468;DHT22;727;48.892;9.544;2023-10-13T03:23:54;12.30;99.90
1468;DHT22;727;48.892;9.544;2023-10-13T03:26:21;12.30;99.90
1468;DHT22;727;48.892;9.544;2023-10-13T03:28:47;12.20;99.90
1468;DHT22;727;48.892;9.544;2023-10-13T03:31:19;12.20;99.90
1468;DHT22;727;48.892;9.544;2023-10-13T03:33:51;12.20;99.90
1468;DHT22;727;48.892;9.544;2023-10-13T03:36:22;12.20;99.90
1468;DHT22;727;48.892;9.544;2023-10-13T03:39:21;12.20;99.90
1468;DHT22;727;48.892;9.544;2023-10-13T03:41:53;12.20;99.90
1468;DHT22;727;48.892;9.544;2023-10-13T03:44:20;12.10;99.90
1468;DHT22;727;48.892;9.544;2023-10-13T03:46:49;12.10;99.90
1468;DHT22;727;48.892;9.544;2023-10-13T03:49:19;12.10;99.90
1468;DHT22;727;48.892;9.544;2023-10-13T03:51:47;12.10;99.90
1468;DHT22;727;48.892;9.544;2023-10-13T03:54:15;12.00;99.90
1468;DHT22;727;48.892;9.544;2023-10-13T03:56:44;12.00;99.90
1468;DHT22;727;48.892;9.544;2023-10-13T03:59:11;12.00;99.90
1468;DHT22;727;48.892;9.544;2023-10-13T04:01:45;12.00;99.90
1468;DHT22;727;48.892;9.544;2023-10-13T04:04:25;11.90;99.90
1468;DHT22;727;48.892;9.544;2023-10-13T04:07:07;11.90;99.90
1468;DHT22;727;48.892;9.544;2023-10-13T04:09:46;11.90;99.90
1468;DHT22;727;48.892;9.544;2023-10-13T04:12:32;11.90;99.90
1468;DHT22;727;48.892;9.544;2023-10-13T04:15:17;11.90;99.90
1468;DHT22;727;48.892;9.544;2023-10-13T04:17:52;11.90;99.90
1468;DHT22;727;48.892;9.544;2023-10-13T04:20:20;11.80;99.90
1468;DHT22;727;48.892;9.544;2023-10-13T04:22:58;11.80;99.90
1468;DHT22;727;48.892;9.544;2023-10-13T04:25:44;11.80;99.90
1468;DHT22;727;48.892;9.544;2023-10-13T04:28:33;11.80;99.90
1468;DHT22;727;48.892;9.544;2023-10-13T04:31:00;11.80;99.90
1468;DHT22;727;48.892;9.544;2023-10-13T04:33:37;11.80;99.90
1468;DHT22;727;48.892;9.544;2023-10-13T04:36:16;11.80;99.90
1468;DHT22;727;48.892;9.544;2023-10-13T04:38:48;11.70;99.90
1468;DHT22;727;48.892;9.544;2023-10-13T04:41:27;11.70;99.90
1468;DHT22;727;48.892;9.544;2023-10-13T04:44:05;11.70;99.90
1468;DHT22;727;48.892;9.544;2023-10-13T04:46:46;11.70;99.90
1468;DHT22;727;48.892;9.544;2023-10-13T04:49:34;11.70;99.90
1468;DHT22;727;48.892;9.544;2023-10-13T04:52:20;11.70;99.90
1468;DHT22;727;48.892;9.544;2023-10-13T04:55:17;11.70;99.90
1468;DHT22;727;48.892;9.544;2023-10-13T04:57:59;11.60;99.90
1468;DHT22;727;48.892;9.544;2023-10-13T05:00:36;11.60;99.90
1468;DHT22;727;48.892;9.544;2023-10-13T05:03:46;11.60;99.90
1468;DHT22;727;48.892;9.544;2023-10-13T05:06:34;11.60;99.90
1468;DHT22;727;48.892;9.544;2023-10-13T05:09:19;11.50;99.90
1468;DHT22;727;48.892;9.544;2023-10-13T05:12:03;11.50;99.90
1468;DHT22;727;48.892;9.544;2023-10-13T05:14:47;11.50;99.90
1468;DHT22;727;48.892;9.544;2023-10-13T05:17:33;11.50;99.90
1468;DHT22;727;48.892;9.544;2023-10-13T05:20:17;11.50;99.90
1468;DHT22;727;48.892;9.544;2023-10-13T05:23:04;11.40;99.90
1468;DHT22;727;48.892;9.544;2023-10-13T05:26:03;11.40;99.90
1468;DHT22;727;48.892;9.544;2023-10-13T05:28:47;11.40;99.90
1468;DHT22;727;48.892;9.544;2023-10-13T05:31:31;11.40;99.90
1468;DHT22;727;48.892;9.544;2023-10-13T05:34:15;11.40;99.90
1468;DHT22;727;48.892;9.544;2023-10-13T05:37:00;11.40;99.90
1468;DHT22;727;48.892;9.544;2023-10-13T05:39:44;11.40;99.90
1468;DHT22;727;48.892;9.544;2023-10-13T05:42:29;11.40;99.90
1468;DHT22;727;48.892;9.544;2023-10-13T05:45:15;11.40;99.90
1468;DHT22;727;48.892;9.544;2023-10-13T05:48:06;11.40;99.90
1468;DHT22;727;48.892;9.544;2023-10-13T05:50:39;11.40;99.90
1468;DHT22;727;48.892;9.544;2023-10-13T05:56:19;11.50;99.90
1468;DHT22;727;48.892;9.544;2023-10-13T05:59:05;11.60;99.90
1468;DHT22;727;48.892;9.544;2023-10-13T06:01:49;11.60;99.90
1468;DHT22;727;48.892;9.544;2023-10-13T06:04:33;11.80;99.90
1468;DHT22;727;48.892;9.544;2023-10-13T06:07:17;11.80;99.90
1468;DHT22;727;48.892;9.544;2023-10-13T06:10:01;11.90;99.90
1468;DHT22;727;48.892;9.544;2023-10-13T06:12:48;12.00;99.90
1468;DHT22;727;48.892;9.544;2023-10-13T06:15:37;12.10;99.90
1468;DHT22;727;48.892;9.544;2023-10-13T06:18:21;12.20;99.90
1468;DHT22;727;48.892;9.544;2023-10-13T06:21:20;12.30;99.90
1468;DHT22;727;48.892;9.544;2023-10-13T06:24:04;12.40;99.90
1468;DHT22;727;48.892;9.544;2023-10-13T06:26:49;12.60;99.90
1468;DHT22;727;48.892;9.544;2023-10-13T06:29:34;12.80;99.90
1468;DHT22;727;48.892;9.544;2023-10-13T06:32:03;13.00;99.90
1468;DHT22;727;48.892;9.544;2023-10-13T06:34:36;13.10;99.90
1468;DHT22;727;48.892;9.544;2023-10-13T06:37:10;13.20;99.90
1468;DHT22;727;48.892;9.544;2023-10-13T06:39:48;13.40;99.90
1468;DHT22;727;48.892;9.544;2023-10-13T06:42:15;13.60;99.90
1468;DHT22;727;48.892;9.544;2023-10-13T06:44:44;13.80;99.90
1468;DHT22;727;48.892;9.544;2023-10-13T06:47:13;14.30;99.90
1468;DHT22;727;48.892;9.544;2023-10-13T06:49:40;15.10;99.90
1468;DHT22;727;48.892;9.544;2023-10-13T06:52:09;15.90;99.90
1468;DHT22;727;48.892;9.544;2023-10-13T06:54:36;16.80;99.90
1468;DHT22;727;48.892;9.544;2023-10-13T06:57:04;17.70;99.90
1468;DHT22;727;48.892;9.544;2023-10-13T06:59:32;18.90;99.90
1468;DHT22;727;48.892;9.544;2023-10-13T07:02:02;19.70;99.90
1468;DHT22;727;48.892;9.544;2023-10-13T07:04:33;20.30;97.50
1468;DHT22;727;48.892;9.544;2023-10-13T07:07:00;21.00;96.00
1468;DHT22;727;48.892;9.544;2023-10-13T07:09:27;21.50;94.70
1468;DHT22;727;48.892;9.544;2023-10-13T07:12:07;21.90;93.60
1468;DHT22;727;48.892;9.544;2023-10-13T07:14:45;22.20;92.40
1468;DHT22;727;48.892;9.544;2023-10-13T07:17:18;22.40;91.30
1468;DHT22;727;48.892;9.544;2023-10-13T07:19:51;22.20;91.30
1468;DHT22;727;48.892;9.544;2023-10-13T07:22:22;22.30;90.80
1468;DHT22;727;48.892;9.544;2023-10-13T07:24:50;22.40;91.30
1468;DHT22;727;48.892;9.544;2023-10-13T07:27:18;23.00;90.40
1468;DHT22;727;48.892;9.544;2023-10-13T07:29:50;23.50;89.00
1468;DHT22;727;48.892;9.544;2023-10-13T07:32:22;23.70;87.10
1468;DHT22;727;48.892;9.544;2023-10-13T07:34:54;24.00;85.80
1468;DHT22;727;48.892;9.544;2023-10-13T07:37:23;24.20;85.20
1468;DHT22;727;48.892;9.544;2023-10-13T07:39:54;24.30;84.10
1468;DHT22;727;48.892;9.544;2023-10-13T07:42:24;24.10;84.40
1468;DHT22;727;48.892;9.544;2023-10-13T07:44:57;23.80;84.60
1468;DHT22;727;48.892;9.544;2023-10-13T07:47:25;23.80;84.50
1468;DHT22;727;48.892;9.544;2023-10-13T07:49:54;23.80;85.00
1468;DHT22;727;48.892;9.544;2023-10-13T07:52:22;23.80;85.00
1468;DHT22;727;48.892;9.544;2023-10-13T07:55:02;23.80;85.60
1468;DHT22;727;48.892;9.544;2023-10-13T07:57:39;23.70;84.70
1468;DHT22;727;48.892;9.544;2023-10-13T08:00:19;23.40;82.40
1468;DHT22;727;48.892;9.544;2023-10-13T08:02:57;23.00;84.70
1468;DHT22;727;48.892;9.544;2023-10-13T08:05:36;22.70;87.90
1468;DHT22;727;48.892;9.544;2023-10-13T08:08:22;22.60;90.00
1468;DHT22;727;48.892;9.544;2023-10-13T08:10:51;22.50;88.90
1468;DHT22;727;48.892;9.544;2023-10-13T08:13:21;22.40;90.00
1468;DHT22;727;48.892;9.544;2023-10-13T08:15:49;22.40;90.60
1468;DHT22;727;48.892;9.544;2023-10-13T08:18:19;22.50;90.40
1468;DHT22;727;48.892;9.544;2023-10-13T08:21:01;22.70;90.10
1468;DHT22;727;48.892;9.544;2023-10-13T08:23:29;22.90;88.30
1468;DHT22;727;48.892;9.544;2023-10-13T08:26:17;23.10;86.20
1468;DHT22;727;48.892;9.544;2023-10-13T08:29:16;23.20;85.30
1468;DHT22;727;48.892;9.544;2023-10-13T08:32:12;23.30;85.50
1468;DHT22;727;48.892;9.544;2023-10-13T08:35:05;23.50;82.90
1468;DHT22;727;48.892;9.544;2023-10-13T08:37:51;23.70;82.70
1468;DHT22;727;48.892;9.544;2023-10-13T08:40:30;23.80;82.70
1468;DHT22;727;48.892;9.544;2023-10-13T08:43:38;24.20;81.30
1468;DHT22;727;48.892;9.544;2023-10-13T08:48:39;24.30;81.30
1468;DHT22;727;48.892;9.544;2023-10-13T08:53:44;24.30;81.10
1468;DHT22;727;48.892;9.544;2023-10-13T08:56:18;24.20;83.30
1468;DHT22;727;48.892;9.544;2023-10-13T08:58:58;24.20;83.20
1468;DHT22;727;48.892;9.544;2023-10-13T09:01:36;24.20;83.00
1468;DHT22;727;48.892;9.544;2023-10-13T09:04:12;24.30;83.50
1468;DHT22;727;48.892;9.544;2023-10-13T09:06:50;24.50;83.70
1468;DHT22;727;48.892;9.544;2023-10-13T09:09:46;24.70;83.30
1468;DHT22;727;48.892;9.544;2023-10-13T09:12:30;24.60;81.40
1468;DHT22;727;48.892;9.544;2023-10-13T09:15:07;24.70;80.30
1468;DHT22;727;48.892;9.544;2023-10-13T09:17:45;24.80;81.10
1468;DHT22;727;48.892;9.544;2023-10-13T09:20:14;25.20;80.00
1468;DHT22;727;48.892;9.544;2023-10-13T09:22:58;25.60;79.70
1468;DHT22;727;48.892;9.544;2023-10-13T09:25:35;25.80;75.50
1468;DHT22;727;48.892;9.544;2023-10-13T09:28:03;26.30;71.80
1468;DHT22;727;48.892;9.544;2023-10-13T09:30:52;26.30;69.70
1468;DHT22;727;48.892;9.544;2023-10-13T09:33:33;26.60;73.40
1468;DHT22;727;48.892;9.544;2023-10-13T09:36:06;27.30;72.20
1468;DHT22;727;48.892;9.544;2023-10-13T09:38:33;27.90;65.20
1468;DHT22;727;48.892;9.544;2023-10-13T09:41:04;28.60;63.10
1468;DHT22;727;48.892;9.544;2023-10-13T09:43:43;28.90;60.80
1468;DHT22;727;48.892;9.544;2023-10-13T09:46:15;29.80;58.90
1468;DHT22;727;48.892;9.544;2023-10-13T09:48:45;30.70;57.30
1468;DHT22;727;48.892;9.544;2023-10-13T09:51:13;31.50;53.80
1468;DHT22;727;48.892;9.544;2023-10-13T09:53:40;31.50;51.30
1468;DHT22;727;48.892;9.544;2023-10-13T09:56:14;31.50;50.50
1468;DHT22;727;48.892;9.544;2023-10-13T09:58:49;31.50;49.00
1468;DHT22;727;48.892;9.544;2023-10-13T10:01:25;31.70;49.20
1468;DHT22;727;48.892;9.544;2023-10-13T10:04:07;31.00;48.30
1468;DHT22;727;48.892;9.544;2023-10-13T10:06:53;30.60;48.20
1468;DHT22;727;48.892;9.544;2023-10-13T10:09:25;30.30;48.10
1468;DHT22;727;48.892;9.544;2023-10-13T10:12:25;30.20;48.50
1468;DHT22;727;48.892;9.544;2023-10-13T10:15:07;30.40;47.70
1468;DHT22;727;48.892;9.544;2023-10-13T10:17:41;30.80;47.50
1468;DHT22;727;48.892;9.544;2023-10-13T10:20:09;31.90;45.80
1468;DHT22;727;48.892;9.544;2023-10-13T10:23:03;32.90;43.60
1468;DHT22;727;48.892;9.544;2023-10-13T10:25:31;33.70;42.30
1468;DHT22;727;48.892;9.544;2023-10-13T10:28:14;34.40;40.80
1468;DHT22;727;48.892;9.544;2023-10-13T10:30:42;34.80;39.70
1468;DHT22;727;48.892;9.544;2023-10-13T10:33:11;35.10;38.50
1468;DHT22;727;48.892;9.544;2023-10-13T10:35:45;35.40;38.50
1468;DHT22;727;48.892;9.544;2023-10-13T10:38:15;35.70;37.40
1468;DHT22;727;48.892;9.544;2023-10-13T10:40:58;35.70;37.00
1468;DHT22;727;48.892;9.544;2023-10-13T10:43:36;35.30;36.30
1468;DHT22;727;48.892;9.544;2023-10-13T10:46:09;35.30;35.20
1468;DHT22;727;48.892;9.544;2023-10-13T10:48:42;35.10;35.40
1468;DHT22;727;48.892;9.544;2023-10-13T10:51:10;35.00;35.90
1468;DHT22;727;48.892;9.544;2023-10-13T10:53:47;33.90;36.30
1468;DHT22;727;48.892;9.544;2023-10-13T10:56:17;32.70;37.30
1468;DHT22;727;48.892;9.544;2023-10-13T10:58:54;31.50;39.60
1468;DHT22;727;48.892;9.544;2023-10-13T11:01:28;31.00;40.50
1468;DHT22;727;48.892;9.544;2023-10-13T11:04:15;30.90;40.30
1468;DHT22;727;48.892;9.544;2023-10-13T11:06:51;31.30;39.70
1468;DHT22;727;48.892;9.544;2023-10-13T11:09:39;31.30;39.40
1468;DHT22;727;48.892;9.544;2023-10-13T11:12:22;31.40;39.50
1468;DHT22;727;48.892;9.544;2023-10-13T11:15:07;30.90;40.00
1468;DHT22;727;48.892;9.544;2023-10-13T11:17:49;30.20;41.30
1468;DHT22;727;48.892;9.544;2023-10-13T11:20:21;29.90;42.40
1468;DHT22;727;48.892;9.544;2023-10-13T11:22:58;30.40;41.70
1468;DHT22;727;48.892;9.544;2023-10-13T11:25:26;31.40;40.20
1468;DHT22;727;48.892;9.544;2023-10-13T11:28:38;31.80;38.90
1468;DHT22;727;48.892;9.544;2023-10-13T11:34:14;31.50;39.40
1468;DHT22;727;48.892;9.544;2023-10-13T11:39:36;30.40;41.70
1468;DHT22;727;48.892;9.544;2023-10-13T11:55:05;32.10;38.60
1468;DHT22;727;48.892;9.544;2023-10-13T12:00:29;31.50;39.30
1468;DHT22;727;48.892;9.544;2023-10-13T12:03:10;31.20;38.80
1468;DHT22;727;48.892;9.544;2023-10-13T12:05:54;31.20;38.60
1468;DHT22;727;48.892;9.544;2023-10-13T12:26:43;31.10;37.10
1468;DHT22;727;48.892;9.544;2023-10-13T12:46:18;30.70;38.20
1468;DHT22;727;48.892;9.544;2023-10-13T13:00:45;30.30;38.90
1468;DHT22;727;48.892;9.544;2023-10-13T13:05:51;30.20;39.10
1468;DHT22;727;48.892;9.544;2023-10-13T13:11:01;30.00;39.00
1468;DHT22;727;48.892;9.544;2023-10-13T13:13:30;29.90;39.20
1468;DHT22;727;48.892;9.544;2023-10-13T13:16:11;29.90;39.60
1468;DHT22;727;48.892;9.544;2023-10-13T13:18:38;30.00;39.30
1468;DHT22;727;48.892;9.544;2023-10-13T13:21:06;29.90;39.30
1468;DHT22;727;48.892;9.544;2023-10-13T13:23:37;30.10;39.90
1468;DHT22;727;48.892;9.544;2023-10-13T13:26:05;30.20;39.20
1468;DHT22;727;48.892;9.544;2023-10-13T13:28:41;29.90;38.60
1468;DHT22;727;48.892;9.544;2023-10-13T13:31:07;29.80;39.60
1468;DHT22;727;48.892;9.544;2023-10-13T13:33:34;29.70;39.40
1468;DHT22;727;48.892;9.544;2023-10-13T13:36:05;29.70;39.50
1468;DHT22;727;48.892;9.544;2023-10-13T13:38:32;29.70;39.40
1468;DHT22;727;48.892;9.544;2023-10-13T13:40:59;29.90;40.50
1468;DHT22;727;48.892;9.544;2023-10-13T13:43:28;29.90;39.80
1468;DHT22;727;48.892;9.544;2023-10-13T13:46:03;29.80;40.00
1468;DHT22;727;48.892;9.544;2023-10-13T13:48:34;29.70;40.80
1468;DHT22;727;48.892;9.544;2023-10-13T13:53:33;29.70;41.00
1468;DHT22;727;48.892;9.544;2023-10-13T14:26:03;28.90;41.40
1468;DHT22;727;48.892;9.544;2023-10-13T14:48:59;28.60;38.90
1468;DHT22;727;48.892;9.544;2023-10-13T15:09:02;28.10;39.30
1468;DHT22;727;48.892;9.544;2023-10-13T15:49:11;26.10;44.90
1468;DHT22;727;48.892;9.544;2023-10-13T15:52:08;25.90;44.30
1468;DHT22;727;48.892;9.544;2023-10-13T15:59:59;25.40;43.70
1468;DHT22;727;48.892;9.544;2023-10-13T16:02:28;25.50;43.90
1468;DHT22;727;48.892;9.544;2023-10-13T16:04:57;25.20;46.70
1468;DHT22;727;48.892;9.544;2023-10-13T16:07:25;25.00;46.40
1468;DHT22;727;48.892;9.544;2023-10-13T16:09:54;24.70;47.80
1468;DHT22;727;48.892;9.544;2023-10-13T16:12:22;24.60;47.70
1468;DHT22;727;48.892;9.544;2023-10-13T16:14:51;24.50;45.60
1468;DHT22;727;48.892;9.544;2023-10-13T16:17:20;24.40;47.00
1468;DHT22;727;48.892;9.544;2023-10-13T16:19:48;24.40;46.40
1468;DHT22;727;48.892;9.544;2023-10-13T16:22:17;24.20;48.00
1468;DHT22;727;48.892;9.544;2023-10-13T16:24:44;24.10;46.60
1468;DHT22;727;48.892;9.544;2023-10-13T16:27:13;24.00;47.50
1468;DHT22;727;48.892;9.544;2023-10-13T16:29:40;23.80;48.60
1468;DHT22;727;48.892;9.544;2023-10-13T16:32:08;23.50;49.30
1468;DHT22;727;48.892;9.544;2023-10-13T16:34:35;23.30;49.50
1468;DHT22;727;48.892;9.544;2023-10-13T16:37:03;23.10;49.60
1468;DHT22;727;48.892;9.544;2023-10-13T16:39:35;22.90;50.30
1468;DHT22;727;48.892;9.544;2023-10-13T16:42:04;22.70;51.10
1468;DHT22;727;48.892;9.544;2023-10-13T16:44:33;22.50;51.90
1468;DHT22;727;48.892;9.544;2023-10-13T16:47:03;22.20;52.80
1468;DHT22;727;48.892;9.544;2023-10-13T16:49:30;21.90;53.60
1468;DHT22;727;48.892;9.544;2023-10-13T16:51:58;21.70;54.20
1468;DHT22;727;48.892;9.544;2023-10-13T16:54:25;21.40;55.10
1468;DHT22;727;48.892;9.544;2023-10-13T16:56:54;21.10;56.40
1468;DHT22;727;48.892;9.544;2023-10-13T16:59:21;20.90;58.20
1468;DHT22;727;48.892;9.544;2023-10-13T17:01:55;20.70;60.20
1468;DHT22;727;48.892;9.544;2023-10-13T17:04:23;20.40;60.40
1468;DHT22;727;48.892;9.544;2023-10-13T17:06:55;20.20;59.90
1468;DHT22;727;48.892;9.544;2023-10-13T17:09:22;20.00;59.90
1468;DHT22;727;48.892;9.544;2023-10-13T17:11:49;19.90;60.30
1468;DHT22;727;48.892;9.544;2023-10-13T17:14:17;19.70;61.50
1468;DHT22;727;48.892;9.544;2023-10-13T17:16:45;19.40;62.70
1468;DHT22;727;48.892;9.544;2023-10-13T17:19:14;19.20;64.40
1468;DHT22;727;48.892;9.544;2023-10-13T17:21:43;19.00;64.10
1468;DHT22;727;48.892;9.544;2023-10-13T17:24:15;18.80;64.30
1468;DHT22;727;48.892;9.544;2023-10-13T17:26:42;18.60;65.10
1468;DHT22;727;48.892;9.544;2023-10-13T17:29:15;18.50;65.40
1468;DHT22;727;48.892;9.544;2023-10-13T17:31:43;18.50;64.90
1468;DHT22;727;48.892;9.544;2023-10-13T17:34:13;18.50;65.20
1468;DHT22;727;48.892;9.544;2023-10-13T17:36:54;18.50;68.30
1468;DHT22;727;48.892;9.544;2023-10-13T17:39:25;18.50;68.40
1468;DHT22;727;48.892;9.544;2023-10-13T17:41:52;18.50;67.60
1468;DHT22;727;48.892;9.544;2023-10-13T17:44:20;18.50;67.60
1468;DHT22;727;48.892;9.544;2023-10-13T17:46:49;18.40;68.30
1468;DHT22;727;48.892;9.544;2023-10-13T17:49:16;18.30;69.30
1468;DHT22;727;48.892;9.544;2023-10-13T17:51:44;18.10;70.10
1468;DHT22;727;48.892;9.544;2023-10-13T17:54:11;17.90;72.00
1468;DHT22;727;48.892;9.544;2023-10-13T17:56:37;17.90;72.10
1468;DHT22;727;48.892;9.544;2023-10-13T17:59:04;17.80;72.20
1468;DHT22;727;48.892;9.544;2023-10-13T18:01:31;17.60;71.90
1468;DHT22;727;48.892;9.544;2023-10-13T18:04:00;17.50;73.20
1468;DHT22;727;48.892;9.544;2023-10-13T18:06:35;17.50;73.20
1468;DHT22;727;48.892;9.544;2023-10-13T18:09:03;17.40;72.80
1468;DHT22;727;48.892;9.544;2023-10-13T18:11:31;17.30;73.10
1468;DHT22;727;48.892;9.544;2023-10-13T18:13:58;17.30;73.40
1468;DHT22;727;48.892;9.544;2023-10-13T18:16:25;17.20;74.00
1468;DHT22;727;48.892;9.544;2023-10-13T18:18:53;17.10;74.90
1468;DHT22;727;48.892;9.544;2023-10-13T18:21:22;17.00;75.60
1468;DHT22;727;48.892;9.544;2023-10-13T18:23:50;16.90;75.60
1468;DHT22;727;48.892;9.544;2023-10-13T18:26:17;16.80;76.20
1468;DHT22;727;48.892;9.544;2023-10-13T18:28:45;16.70;76.50
1468;DHT22;727;48.892;9.544;2023-10-13T18:31:12;16.60;76.20
1468;DHT22;727;48.892;9.544;2023-10-13T18:33:40;16.50;76.70
1468;DHT22;727;48.892;9.544;2023-10-13T18:36:11;16.50;76.90
1468;DHT22;727;48.892;9.544;2023-10-13T18:38:40;16.40;77.60
1468;DHT22;727;48.892;9.544;2023-10-13T18:41:09;16.30;78.40
1468;DHT22;727;48.892;9.544;2023-10-13T18:43:39;16.30;78.60
1468;DHT22;727;48.892;9.544;2023-10-13T18:46:07;16.30;78.80
1468;DHT22;727;48.892;9.544;2023-10-13T18:48:35;16.20;78.80
1468;DHT22;727;48.892;9.544;2023-10-13T18:51:04;16.20;79.10
1468;DHT22;727;48.892;9.544;2023-10-13T18:53:32;16.30;79.70
1468;DHT22;727;48.892;9.544;2023-10-13T18:56:05;16.20;79.90
1468;DHT22;727;48.892;9.544;2023-10-13T18:58:35;16.20;80.70
1468;DHT22;727;48.892;9.544;2023-10-13T19:01:09;16.10;80.70
1468;DHT22;727;48.892;9.544;2023-10-13T19:03:38;16.00;81.10
1468;DHT22;727;48.892;9.544;2023-10-13T19:06:04;16.00;82.10
1468;DHT22;727;48.892;9.544;2023-10-13T19:08:32;15.90;82.10
1468;DHT22;727;48.892;9.544;2023-10-13T19:11:02;15.90;83.00
1468;DHT22;727;48.892;9.544;2023-10-13T19:13:30;15.80;83.00
1468;DHT22;727;48.892;9.544;2023-10-13T19:15:57;15.70;83.50
1468;DHT22;727;48.892;9.544;2023-10-13T19:18:26;15.60;83.30
1468;DHT22;727;48.892;9.544;2023-10-13T19:20:54;15.60;83.10
1468;DHT22;727;48.892;9.544;2023-10-13T19:23:21;15.50;83.10
1468;DHT22;727;48.892;9.544;2023-10-13T19:25:52;15.50;83.40
1468;DHT22;727;48.892;9.544;2023-10-13T19:28:21;15.50;83.60
1468;DHT22;727;48.892;9.544;2023-10-13T19:30:49;15.40;84.00
1468;DHT22;727;48.892;9.544;2023-10-13T19:33:17;15.40;84.60
1468;DHT22;727;48.892;9.544;2023-10-13T19:35:45;15.30;84.90
1468;DHT22;727;48.892;9.544;2023-10-13T19:38:12;15.30;85.90
1468;DHT22;727;48.892;9.544;2023-10-13T19:40:40;15.30;86.40
1468;DHT22;727;48.892;9.544;2023-10-13T19:43:07;15.30;86.80
1468;DHT22;727;48.892;9.544;2023-10-13T19:45:38;15.30;87.10
1468;DHT22;727;48.892;9.544;2023-10-13T19:48:07;15.30;87.90
1468;DHT22;727;48.892;9.544;2023-10-13T19:50:35;15.20;88.20
1468;DHT22;727;48.892;9.544;2023-10-13T19:53:04;15.20;88.90
1468;DHT22;727;48.892;9.544;2023-10-13T19:55:39;15.20;90.00
1468;DHT22;727;48.892;9.544;2023-10-13T19:58:06;15.10;90.30
1468;DHT22;727;48.892;9.544;2023-10-13T20:00:33;15.10;90.80
1468;DHT22;727;48.892;9.544;2023-10-13T20:03:00;15.10;91.30
1468;DHT22;727;48.892;9.544;2023-10-13T20:05:28;15.00;91.20
1468;DHT22;727;48.892;9.544;2023-10-13T20:07:56;15.00;91.40
1468;DHT22;727;48.892;9.544;2023-10-13T20:10:23;14.90;91.90
1468;DHT22;727;48.892;9.544;2023-10-13T20:12:50;14.90;92.50